Time;durP1;ratioP1;P1;durP2;ratioP2;P2;SDS_P1;SDS_P2;PMS_P1;PMS_P2;Temp;Humidity;BMP_temperature;BMP_pressure;BME280_temperature;BME280_humidity;BME280_pressure;Samples;Min_cycle;Max_cycle;Signal;HPM_P1;HPM_P2
2022/03/14 00:00:27;;;;;;;0.10;0.10;;;6.00;99.90;;;;;;5017211;28;20078;-77
2022/03/14 00:02:53;;;;;;;0.03;0.03;;;6.00;99.90;;;;;;5017262;28;20046;-77
2022/03/14 00:05:19;;;;;;;0.08;0.08;;;6.00;99.90;;;;;;5017689;28;20049;-77
2022/03/14 00:07:46;;;;;;;0.13;0.13;;;6.00;99.90;;;;;;5016609;28;20065;-77
2022/03/14 00:10:14;;;;;;;0.10;0.10;;;6.00;99.90;;;;;;5016960;28;20539;-77
2022/03/14 00:12:42;;;;;;;0.00;0.00;;;6.00;99.90;;;;;;5017090;28;20506;-77
2022/03/14 00:15:11;;;;;;;0.10;0.10;;;6.00;99.90;;;;;;5016922;28;20038;-77
2022/03/14 00:17:37;;;;;;;0.10;0.10;;;6.00;99.90;;;;;;4999283;28;20046;-77
2022/03/14 00:20:04;;;;;;;0.25;0.25;;;6.00;99.90;;;;;;5016826;28;20030;-77
2022/03/14 00:22:31;;;;;;;0.00;0.00;;;6.10;99.90;;;;;;5016496;28;20050;-77
2022/03/14 00:24:57;;;;;;;0.25;0.25;;;6.10;99.90;;;;;;5016458;28;20030;-77
2022/03/14 00:27:22;;;;;;;0.10;0.10;;;6.10;99.90;;;;;;5016397;28;20492;-77
2022/03/14 00:29:48;;;;;;;0.10;0.10;;;6.10;99.90;;;;;;5016358;28;20034;-77
2022/03/14 00:32:14;;;;;;;0.10;0.10;;;6.00;99.90;;;;;;5016337;28;20042;-77
2022/03/14 00:34:41;;;;;;;0.10;0.10;;;6.10;99.90;;;;;;5016451;28;20038;-77
2022/03/14 00:37:06;;;;;;;0.20;0.20;;;6.10;99.90;;;;;;5015777;28;20042;-77
2022/03/14 00:39:32;;;;;;;0.00;0.00;;;6.10;99.90;;;;;;5016183;28;20037;-77
2022/03/14 00:41:58;;;;;;;0.10;0.10;;;6.10;99.90;;;;;;5014623;28;20050;-77
2022/03/14 00:44:24;;;;;;;0.00;0.00;;;6.10;99.90;;;;;;5016114;28;20045;-77
2022/03/14 00:46:50;;;;;;;0.20;0.20;;;6.10;99.90;;;;;;5016036;28;20473;-77
2022/03/14 00:49:16;;;;;;;0.10;0.10;;;6.10;99.90;;;;;;5016264;28;20117;-77
2022/03/14 00:51:42;;;;;;;0.10;0.10;;;6.20;99.90;;;;;;5015625;28;20575;-77
2022/03/14 00:54:09;;;;;;;0.10;0.10;;;6.10;99.90;;;;;;5015952;28;20040;-77
2022/03/14 00:56:35;;;;;;;0.20;0.20;;;6.20;99.90;;;;;;5015841;28;20124;-77
2022/03/14 00:59:02;;;;;;;0.65;0.50;;;6.10;99.90;;;;;;5015809;28;20512;-77
2022/03/14 01:01:28;;;;;;;0.10;0.10;;;6.10;99.90;;;;;;5015739;28;20077;-77
2022/03/14 01:03:54;;;;;;;0.00;0.00;;;6.10;99.90;;;;;;5015535;28;20042;-77
2022/03/14 01:06:21;;;;;;;0.10;0.10;;;6.20;99.90;;;;;;5015730;28;20048;-77
2022/03/14 01:08:47;;;;;;;0.00;0.00;;;6.10;99.90;;;;;;5015400;28;20033;-77
2022/03/14 01:11:13;;;;;;;0.10;0.10;;;6.10;99.90;;;;;;4997667;28;20096;-77
2022/03/14 01:13:39;;;;;;;0.00;0.00;;;6.00;99.90;;;;;;4997956;28;20121;-76
2022/03/14 01:16:05;;;;;;;0.10;0.10;;;6.00;99.90;;;;;;5015796;28;20069;-77
2022/03/14 01:18:31;;;;;;;0.40;0.25;;;6.00;99.90;;;;;;5015217;28;20041;-77
2022/03/14 01:20:57;;;;;;;0.03;0.03;;;6.10;99.90;;;;;;5015568;28;20072;-77
2022/03/14 01:23:23;;;;;;;0.10;0.10;;;6.10;99.90;;;;;;5015806;28;20058;-77
2022/03/14 01:25:49;;;;;;;0.00;0.00;;;6.10;99.90;;;;;;5015699;28;20477;-77
2022/03/14 01:28:15;;;;;;;0.10;0.10;;;6.10;99.90;;;;;;5015638;28;20041;-77
2022/03/14 01:30:43;;;;;;;0.10;0.10;;;6.00;99.90;;;;;;5015513;28;20050;-77
2022/03/14 01:33:10;;;;;;;0.28;0.28;;;6.00;99.90;;;;;;5015401;28;20570;-77
2022/03/14 01:35:39;;;;;;;0.00;0.00;;;6.00;99.90;;;;;;4997817;28;20515;-77
2022/03/14 01:38:05;;;;;;;0.20;0.20;;;6.00;99.90;;;;;;5015332;28;20125;-77
2022/03/14 01:40:31;;;;;;;0.10;0.10;;;6.00;99.90;;;;;;5015511;28;20052;-77
2022/03/14 01:42:57;;;;;;;0.10;0.10;;;6.10;99.90;;;;;;5015244;28;20041;-77
2022/03/14 01:45:23;;;;;;;0.00;0.00;;;6.10;99.90;;;;;;5015067;28;20125;-77
2022/03/14 01:47:49;;;;;;;0.20;0.20;;;6.10;99.90;;;;;;4997666;28;20088;-77
2022/03/14 01:50:16;;;;;;;0.00;0.00;;;6.10;99.90;;;;;;5015497;28;20072;-78
2022/03/14 01:52:43;;;;;;;0.10;0.10;;;6.20;99.90;;;;;;5015169;28;20041;-78
2022/03/14 01:55:11;;;;;;;0.10;0.10;;;6.20;99.90;;;;;;5015211;28;20048;-76
2022/03/14 01:57:38;;;;;;;0.10;0.10;;;6.10;99.90;;;;;;5015035;28;20045;-77
2022/03/14 02:00:07;;;;;;;0.30;0.30;;;6.00;99.90;;;;;;5015437;28;20033;-77
2022/03/14 02:02:32;;;;;;;0.10;0.10;;;6.10;99.90;;;;;;5015456;28;20480;-78
2022/03/14 02:04:58;;;;;;;0.22;0.20;;;6.10;99.90;;;;;;5014243;28;20037;-77
2022/03/14 02:07:25;;;;;;;0.00;0.00;;;6.10;99.90;;;;;;5014585;28;20042;-77
2022/03/14 02:09:51;;;;;;;0.40;0.40;;;6.10;99.90;;;;;;5014977;28;20062;-77
2022/03/14 02:12:18;;;;;;;0.20;0.20;;;6.10;99.90;;;;;;5014922;28;20073;-77
2022/03/14 02:14:44;;;;;;;0.10;0.10;;;6.20;99.90;;;;;;5014686;28;20084;-77
2022/03/14 02:17:16;;;;;;;0.17;0.17;;;6.30;99.90;;;;;;5014678;28;20520;-77
2022/03/14 02:19:43;;;;;;;0.00;0.00;;;6.30;99.90;;;;;;5015270;28;20041;-77
2022/03/14 02:22:13;;;;;;;0.15;0.15;;;6.30;99.90;;;;;;5014534;28;20535;-77
2022/03/14 02:24:43;;;;;;;0.00;0.00;;;6.40;99.90;;;;;;5014726;28;20038;-77
2022/03/14 02:27:10;;;;;;;0.10;0.10;;;6.30;99.90;;;;;;5014826;28;20050;-77
2022/03/14 02:29:37;;;;;;;0.00;0.00;;;6.30;99.90;;;;;;5014284;28;20034;-77
2022/03/14 02:32:03;;;;;;;0.38;0.30;;;6.30;99.90;;;;;;5014386;28;20057;-77
2022/03/14 02:34:29;;;;;;;0.57;0.30;;;6.40;99.90;;;;;;5014551;28;20065;-77
2022/03/14 02:36:55;;;;;;;0.25;0.25;;;6.40;99.90;;;;;;5014036;28;20042;-77
2022/03/14 02:39:21;;;;;;;0.10;0.10;;;6.50;99.90;;;;;;5015028;28;20041;-77
2022/03/14 02:41:47;;;;;;;0.10;0.10;;;6.40;99.90;;;;;;5014891;28;20045;-77
2022/03/14 02:44:13;;;;;;;0.05;0.05;;;6.50;99.90;;;;;;5014479;28;20038;-77
2022/03/14 02:46:40;;;;;;;0.10;0.10;;;6.40;99.90;;;;;;5014612;28;20582;-77
2022/03/14 02:49:10;;;;;;;0.90;0.45;;;6.50;99.90;;;;;;5014399;28;20045;-77
2022/03/14 02:51:41;;;;;;;0.50;0.50;;;6.60;99.90;;;;;;5014429;28;20517;-77
2022/03/14 02:54:08;;;;;;;;;;;6.60;99.90;;;;;;5015095;28;20045;-77
2022/03/14 02:56:34;;;;;;;0.10;0.10;;;6.60;99.90;;;;;;5014368;28;20342;-77
2022/03/14 02:59:01;;;;;;;0.20;0.20;;;6.60;99.90;;;;;;5014052;28;20042;-77
2022/03/14 03:01:27;;;;;;;0.40;0.40;;;6.60;99.90;;;;;;5013992;28;20385;-77
2022/03/14 03:03:53;;;;;;;0.10;0.10;;;6.60;99.90;;;;;;5013990;28;20121;-77
2022/03/14 03:06:23;;;;;;;0.30;0.30;;;6.70;99.90;;;;;;5014551;28;20042;-77
2022/03/14 03:08:53;;;;;;;0.20;0.20;;;6.70;99.90;;;;;;5014275;28;20037;-77
2022/03/14 03:11:22;;;;;;;0.35;0.35;;;6.80;99.90;;;;;;5014021;28;20045;-77
2022/03/14 03:13:52;;;;;;;0.20;0.20;;;6.70;99.90;;;;;;5014492;28;20481;-77
2022/03/14 03:16:18;;;;;;;0.22;0.22;;;6.80;99.90;;;;;;5016810;28;20041;-77
2022/03/14 03:18:45;;;;;;;0.45;0.22;;;6.80;99.90;;;;;;5017830;28;20044;-77
2022/03/14 03:21:12;;;;;;;0.28;0.28;;;6.90;99.90;;;;;;4999390;28;20500;-78
2022/03/14 03:23:39;;;;;;;0.30;0.30;;;6.80;99.90;;;;;;5000044;28;20076;-77
2022/03/14 03:26:06;;;;;;;0.40;0.40;;;6.90;99.90;;;;;;5017600;28;20045;-77
2022/03/14 03:28:38;;;;;;;0.20;0.20;;;7.00;99.90;;;;;;5017548;28;20042;-78
2022/03/14 03:31:08;;;;;;;0.10;0.10;;;7.00;99.90;;;;;;5017438;28;20042;-77
2022/03/14 03:33:35;;;;;;;0.88;0.30;;;7.00;99.90;;;;;;5017799;28;20404;-77
2022/03/14 03:36:00;;;;;;;0.10;0.10;;;7.00;99.90;;;;;;5016922;28;20045;-77
2022/03/14 03:38:27;;;;;;;0.15;0.15;;;7.00;99.90;;;;;;5017380;28;20034;-77
2022/03/14 03:40:53;;;;;;;0.32;0.32;;;7.00;99.90;;;;;;4999709;28;20485;-77
2022/03/14 03:43:19;;;;;;;0.20;0.20;;;7.00;99.90;;;;;;5017344;28;20049;-77
2022/03/14 03:45:45;;;;;;;0.60;0.60;;;7.00;99.90;;;;;;5017209;28;20037;-77
2022/03/14 03:48:11;;;;;;;0.13;0.13;;;7.00;99.90;;;;;;5016888;28;20053;-77
2022/03/14 03:50:38;;;;;;;1.10;0.77;;;7.00;99.90;;;;;;5017337;28;20042;-77
2022/03/14 03:53:04;;;;;;;0.20;0.20;;;7.00;99.90;;;;;;5016990;28;20073;-77
2022/03/14 03:55:30;;;;;;;0.45;0.25;;;7.10;99.90;;;;;;5017021;28;20205;-77
2022/03/14 03:57:55;;;;;;;0.30;0.30;;;7.10;99.90;;;;;;5016974;28;20366;-77
2022/03/14 04:00:22;;;;;;;0.70;0.70;;;7.10;99.90;;;;;;5017217;28;20521;-78
2022/03/14 04:02:50;;;;;;;0.32;0.32;;;7.00;99.90;;;;;;5017026;28;20049;-77
2022/03/14 04:05:16;;;;;;;0.20;0.20;;;7.10;99.90;;;;;;5016557;28;20428;-77
2022/03/14 04:07:43;;;;;;;0.30;0.30;;;7.20;99.90;;;;;;4999013;28;20038;-77
2022/03/14 04:10:14;;;;;;;1.08;1.08;;;7.20;99.90;;;;;;5016718;28;20083;-77
2022/03/14 04:12:40;;;;;;;0.10;0.10;;;7.10;99.90;;;;;;5016846;28;20037;-77
2022/03/14 04:15:09;;;;;;;1.30;0.90;;;7.20;99.90;;;;;;5016676;28;20049;-77
2022/03/14 04:17:38;;;;;;;0.43;0.43;;;7.20;99.90;;;;;;5016723;28;20492;-77
2022/03/14 04:20:06;;;;;;;0.60;0.60;;;7.10;99.90;;;;;;5016584;28;20080;-77
2022/03/14 04:22:36;;;;;;;0.40;0.40;;;7.20;99.90;;;;;;4998933;28;20393;-77
2022/03/14 04:25:02;;;;;;;1.02;0.55;;;7.20;99.90;;;;;;5017045;28;20148;-77
2022/03/14 04:27:28;;;;;;;1.20;1.10;;;7.20;99.90;;;;;;5015971;28;20612;-77
2022/03/14 04:29:56;;;;;;;0.20;0.20;;;7.20;99.90;;;;;;5016420;28;20089;-77
2022/03/14 04:32:23;;;;;;;0.13;0.13;;;7.20;99.90;;;;;;5016815;28;20046;-77
2022/03/14 04:34:49;;;;;;;0.30;0.30;;;7.20;99.90;;;;;;5016350;28;20551;-77
2022/03/14 04:37:15;;;;;;;0.20;0.20;;;7.20;99.90;;;;;;5016278;28;20038;-77
2022/03/14 04:39:41;;;;;;;0.28;0.28;;;7.20;99.90;;;;;;5016736;28;20103;-77
2022/03/14 04:42:08;;;;;;;7.00;0.45;;;7.20;99.90;;;;;;5014875;28;20049;-77
2022/03/14 04:44:34;;;;;;;0.47;0.47;;;7.30;99.90;;;;;;5016688;28;20038;-77
2022/03/14 04:47:02;;;;;;;1.20;1.10;;;7.20;99.90;;;;;;5016281;28;20076;-77
2022/03/14 04:49:29;;;;;;;7.28;1.77;;;7.20;99.90;;;;;;5016350;28;20057;-77
2022/03/14 04:51:55;;;;;;;0.25;0.25;;;7.30;99.90;;;;;;5016320;28;20045;-77
2022/03/14 04:54:22;;;;;;;0.60;0.60;;;7.20;99.90;;;;;;5015971;28;20447;-77
2022/03/14 04:56:48;;;;;;;0.40;0.40;;;7.20;99.90;;;;;;5016598;28;20095;-76
2022/03/14 04:59:14;;;;;;;1.00;0.95;;;7.20;99.90;;;;;;5016161;28;20044;-77
2022/03/14 05:01:40;;;;;;;1.77;1.05;;;7.30;99.90;;;;;;5015832;28;20056;-78
2022/03/14 05:04:07;;;;;;;0.20;0.20;;;7.30;99.90;;;;;;5007670;28;20041;-77
2022/03/14 05:06:33;;;;;;;0.73;0.73;;;7.30;99.90;;;;;;4996219;28;20038;-77
2022/03/14 05:08:59;;;;;;;1.75;0.98;;;7.30;99.90;;;;;;5001679;28;20439;-77
2022/03/14 05:11:26;;;;;;;0.60;0.25;;;7.40;99.90;;;;;;5013861;28;20053;-77
2022/03/14 05:13:52;;;;;;;2.03;1.60;;;7.40;99.90;;;;;;5010732;28;20096;-77
2022/03/14 05:16:19;;;;;;;0.22;0.22;;;7.40;99.90;;;;;;5015109;28;20124;-76
2022/03/14 05:18:45;;;;;;;0.40;0.40;;;7.50;99.90;;;;;;5014884;28;20037;-77
2022/03/14 05:21:11;;;;;;;0.35;0.35;;;7.50;99.90;;;;;;5014740;28;20096;-77
2022/03/14 05:23:37;;;;;;;1.10;0.75;;;7.40;99.90;;;;;;5015557;28;20117;-77
2022/03/14 05:26:04;;;;;;;2.72;1.38;;;7.60;99.90;;;;;;5014805;28;20128;-76
2022/03/14 05:28:30;;;;;;;0.98;0.98;;;7.60;99.90;;;;;;5015011;28;20096;-76
2022/03/14 05:30:57;;;;;;;0.55;0.55;;;7.70;99.90;;;;;;5014677;28;20133;-78
2022/03/14 05:33:23;;;;;;;1.65;1.17;;;7.70;99.90;;;;;;5013790;28;20208;-76
2022/03/14 05:35:49;;;;;;;0.50;0.50;;;7.60;99.90;;;;;;5014664;28;20076;-76
2022/03/14 05:38:15;;;;;;;0.70;0.70;;;7.70;99.90;;;;;;5012241;28;20104;-77
2022/03/14 05:40:41;;;;;;;1.25;1.20;;;7.60;99.90;;;;;;4995790;28;20591;-77
2022/03/14 05:43:09;;;;;;;0.63;0.63;;;7.60;99.90;;;;;;5011871;28;20046;-77
2022/03/14 05:45:35;;;;;;;0.30;0.30;;;7.50;99.90;;;;;;5013629;28;20045;-77
2022/03/14 05:48:01;;;;;;;0.65;0.63;;;7.50;99.90;;;;;;5013587;28;20045;-77
2022/03/14 05:50:27;;;;;;;2.50;1.75;;;7.60;99.90;;;;;;5012725;28;20041;-77
2022/03/14 05:52:53;;;;;;;1.38;1.38;;;7.50;99.90;;;;;;5012541;28;20038;-77
2022/03/14 05:55:19;;;;;;;0.95;0.82;;;7.50;99.90;;;;;;5014712;28;20045;-77
2022/03/14 05:57:45;;;;;;;1.02;0.50;;;7.60;99.90;;;;;;5014491;28;20040;-77
2022/03/14 06:00:13;;;;;;;0.10;0.10;;;7.50;99.90;;;;;;5014785;28;20133;-76
2022/03/14 06:02:45;;;;;;;0.65;0.65;;;7.40;99.90;;;;;;5014815;28;20041;-76
2022/03/14 06:05:11;;;;;;;0.60;0.60;;;7.40;99.90;;;;;;5014909;28;20129;-76
2022/03/14 06:07:36;;;;;;;2.33;1.13;;;7.50;99.90;;;;;;5014623;28;20069;-77
2022/03/14 06:10:02;;;;;;;0.28;0.28;;;7.50;99.90;;;;;;5014664;28;20041;-76
2022/03/14 06:12:30;;;;;;;0.52;0.52;;;7.40;99.90;;;;;;5015058;28;20045;-76
2022/03/14 06:14:59;;;;;;;0.73;0.73;;;7.40;99.90;;;;;;5014375;28;20054;-76
2022/03/14 06:17:25;;;;;;;0.47;0.47;;;7.40;99.90;;;;;;5014863;28;20040;-76
2022/03/14 06:19:51;;;;;;;0.68;0.68;;;7.50;99.90;;;;;;5014671;28;20128;-76
2022/03/14 06:22:19;;;;;;;0.20;0.20;;;7.50;99.90;;;;;;5014702;28;20046;-76
2022/03/14 06:24:47;;;;;;;0.95;0.95;;;7.50;99.90;;;;;;5014888;28;20050;-76
2022/03/14 06:27:18;;;;;;;1.08;1.02;;;7.60;99.90;;;;;;5015021;28;20073;-76
2022/03/14 06:29:45;;;;;;;;;;;7.60;99.90;;;;;;5016229;28;20040;-76
2022/03/14 06:32:11;;;;;;;0.63;0.63;;;7.60;99.90;;;;;;5014838;28;19917;-76
2022/03/14 06:34:38;;;;;;;0.82;0.82;;;7.60;99.90;;;;;;5014821;28;20046;-76
2022/03/14 06:37:06;;;;;;;0.10;0.10;;;7.60;99.90;;;;;;5014965;28;20124;-76
2022/03/14 06:39:32;;;;;;;0.95;0.50;;;7.50;99.90;;;;;;5014927;28;20037;-76
2022/03/14 06:41:59;;;;;;;1.00;0.95;;;7.50;99.90;;;;;;5015116;28;20049;-76
2022/03/14 06:44:27;;;;;;;0.52;0.52;;;7.50;99.90;;;;;;5014504;28;20202;-76
2022/03/14 06:46:54;;;;;;;0.93;0.68;;;7.50;99.90;;;;;;5014754;28;20038;-76
2022/03/14 06:49:20;;;;;;;0.68;0.68;;;7.50;99.90;;;;;;5014752;28;20041;-76
2022/03/14 06:51:47;;;;;;;0.70;0.70;;;7.60;99.90;;;;;;5018121;28;20041;-76
2022/03/14 06:54:12;;;;;;;0.93;0.88;;;7.50;99.90;;;;;;5018210;28;20045;-76
2022/03/14 06:56:39;;;;;;;0.75;0.75;;;7.50;99.90;;;;;;5018188;28;20026;-77
2022/03/14 06:59:04;;;;;;;0.60;0.60;;;7.50;99.90;;;;;;5018396;28;20117;-76
2022/03/14 07:01:30;;;;;;;0.82;0.82;;;7.60;99.90;;;;;;5018953;28;20152;-76
2022/03/14 07:03:57;;;;;;;1.08;1.08;;;7.60;99.90;;;;;;5018319;28;20038;-76
2022/03/14 07:06:23;;;;;;;0.88;0.88;;;7.60;99.90;;;;;;5017829;28;20042;-76
2022/03/14 07:08:49;;;;;;;0.85;0.85;;;7.50;99.90;;;;;;5018108;28;20038;-76
2022/03/14 07:11:15;;;;;;;0.57;0.50;;;7.60;99.90;;;;;;5017854;28;20041;-76
2022/03/14 07:13:41;;;;;;;0.47;0.47;;;7.50;99.90;;;;;;5017808;28;20121;-76
2022/03/14 07:16:07;;;;;;;0.77;0.77;;;7.60;99.90;;;;;;5018626;28;20042;-76
2022/03/14 07:18:34;;;;;;;0.75;0.75;;;7.50;99.90;;;;;;5017946;28;20045;-76
2022/03/14 07:21:00;;;;;;;1.33;1.13;;;7.60;99.90;;;;;;5017834;28;20049;-77
2022/03/14 07:23:26;;;;;;;0.52;0.52;;;7.60;99.90;;;;;;5012167;28;20053;-76
2022/03/14 07:25:52;;;;;;;1.05;1.05;;;7.60;99.90;;;;;;5009421;28;20041;-77
2022/03/14 07:28:18;;;;;;;0.40;0.40;;;7.60;99.90;;;;;;5003727;28;20065;-77
2022/03/14 07:30:45;;;;;;;1.10;0.50;;;7.60;99.90;;;;;;5012118;28;20052;-77
2022/03/14 07:33:11;;;;;;;0.68;0.68;;;7.60;99.90;;;;;;5012656;28;20049;-77
2022/03/14 07:35:38;;;;;;;0.10;0.10;;;7.60;99.90;;;;;;5006313;28;20070;-77
2022/03/14 07:38:04;;;;;;;0.52;0.52;;;7.70;99.90;;;;;;4997586;28;20037;-77
2022/03/14 07:40:31;;;;;;;0.57;0.57;;;7.80;99.90;;;;;;5014289;28;20459;-77
2022/03/14 07:42:59;;;;;;;0.10;0.10;;;7.80;99.90;;;;;;4999022;28;20036;-77
2022/03/14 07:45:25;;;;;;;0.30;0.30;;;7.80;99.90;;;;;;4997464;28;20038;-77
2022/03/14 07:47:53;;;;;;;0.52;0.52;;;7.90;99.90;;;;;;5001093;28;20042;-77
2022/03/14 07:50:20;;;;;;;0.10;0.10;;;7.90;99.90;;;;;;5002029;28;20042;-76
2022/03/14 07:52:47;;;;;;;0.20;0.20;;;7.90;99.90;;;;;;5016643;28;20041;-76
2022/03/14 07:55:14;;;;;;;0.10;0.10;;;7.90;99.90;;;;;;5016782;28;20133;-77
2022/03/14 07:57:40;;;;;;;0.70;0.63;;;7.90;99.90;;;;;;5016978;28;20095;-76
2022/03/14 08:00:10;;;;;;;0.32;0.32;;;7.90;99.90;;;;;;5017124;28;20186;-76
2022/03/14 08:02:37;;;;;;;0.15;0.15;;;8.00;99.90;;;;;;5015316;28;20554;-76
2022/03/14 08:05:04;;;;;;;0.20;0.20;;;8.00;99.90;;;;;;5004044;28;20034;-78
2022/03/14 08:07:30;;;;;;;0.65;0.65;;;8.10;99.90;;;;;;5004837;28;20037;-77
2022/03/14 08:09:56;;;;;;;1.38;1.30;;;8.10;99.90;;;;;;5008227;28;20125;-77
2022/03/14 08:12:22;;;;;;;0.35;0.35;;;8.10;99.90;;;;;;5007010;28;20509;-77
2022/03/14 08:14:52;;;;;;;0.70;0.70;;;8.10;99.90;;;;;;5005235;28;20042;-76
2022/03/14 08:17:18;;;;;;;0.95;0.88;;;8.10;99.90;;;;;;5005075;28;20038;-77
2022/03/14 08:19:45;;;;;;;2.47;2.15;;;8.10;99.90;;;;;;5001461;28;20125;-77
2022/03/14 08:22:11;;;;;;;2.55;0.40;;;8.20;99.90;;;;;;5000724;28;20145;-77
2022/03/14 08:24:37;;;;;;;0.40;0.40;;;8.30;99.90;;;;;;4999497;28;20050;-76
2022/03/14 08:27:04;;;;;;;0.63;0.63;;;8.30;99.90;;;;;;5001475;28;20042;-77
2022/03/14 08:29:30;;;;;;;0.17;0.17;;;8.30;99.90;;;;;;5005456;28;20096;-77
2022/03/14 08:31:58;;;;;;;0.93;0.68;;;8.30;99.90;;;;;;4987249;28;20135;-75
2022/03/14 08:34:25;;;;;;;0.70;0.70;;;8.40;99.90;;;;;;5006464;28;20037;-76
2022/03/14 08:36:51;;;;;;;0.47;0.47;;;8.40;99.90;;;;;;5006799;28;20080;-77
2022/03/14 08:39:17;;;;;;;0.75;0.75;;;8.40;99.90;;;;;;5006988;28;20058;-77
2022/03/14 08:41:43;;;;;;;0.10;0.10;;;8.50;99.90;;;;;;5007400;28;20057;-77
2022/03/14 08:44:09;;;;;;;0.55;0.47;;;8.50;99.90;;;;;;5007535;28;20038;-75
2022/03/14 08:46:35;;;;;;;1.30;1.20;;;8.60;99.90;;;;;;4999222;28;20061;-76
2022/03/14 08:49:02;;;;;;;0.68;0.68;;;8.70;99.90;;;;;;4997551;28;20042;-76
2022/03/14 08:51:28;;;;;;;0.20;0.20;;;8.70;99.90;;;;;;4995616;28;20060;-76
2022/03/14 08:53:54;;;;;;;1.85;0.95;;;8.60;99.90;;;;;;4996110;28;20047;-75
2022/03/14 08:56:20;;;;;;;0.10;0.10;;;8.70;99.90;;;;;;5010366;28;20784;-77
2022/03/14 08:58:46;;;;;;;0.22;0.22;;;8.70;99.90;;;;;;5015000;28;20037;-77
2022/03/14 09:01:12;;;;;;;0.50;0.50;;;8.70;99.90;;;;;;5006076;28;20144;-76
2022/03/14 09:03:38;;;;;;;0.75;0.75;;;8.70;99.90;;;;;;4995155;28;20042;-77
2022/03/14 09:06:05;;;;;;;4.10;0.63;;;8.70;99.90;;;;;;4977666;28;20038;-77
2022/03/14 09:08:34;;;;;;;0.32;0.32;;;8.80;99.90;;;;;;5009193;28;20046;-76
2022/03/14 09:11:01;;;;;;;0.45;0.45;;;8.80;99.90;;;;;;5014754;28;20049;-77
2022/03/14 09:13:28;;;;;;;0.10;0.10;;;8.90;99.90;;;;;;5014328;28;20038;-77
2022/03/14 09:15:55;;;;;;;1.10;1.02;;;8.90;99.90;;;;;;5014713;28;20508;-77
2022/03/14 09:18:21;;;;;;;1.00;0.98;;;8.90;99.90;;;;;;5014376;28;20042;-76
2022/03/14 09:20:49;;;;;;;0.60;0.60;;;9.00;99.90;;;;;;5015055;28;20084;-76
2022/03/14 09:23:20;;;;;;;0.17;0.17;;;9.00;99.90;;;;;;4969376;28;1282944;-76
2022/03/14 09:25:47;;;;;;;1.75;0.70;;;9.10;99.90;;;;;;4995379;28;20378;-77
2022/03/14 09:28:13;;;;;;;0.20;0.20;;;9.00;99.90;;;;;;4995412;28;20034;-77
2022/03/14 09:30:39;;;;;;;0.95;0.82;;;9.10;99.90;;;;;;4997841;28;20131;-76
2022/03/14 09:33:05;;;;;;;0.10;0.10;;;9.10;99.90;;;;;;5000619;28;20497;-76
2022/03/14 09:35:31;;;;;;;0.38;0.38;;;9.10;99.90;;;;;;4995308;28;20566;-75
2022/03/14 09:37:58;;;;;;;0.30;0.30;;;9.10;99.90;;;;;;4995128;28;20145;-75
2022/03/14 09:40:24;;;;;;;20.48;1.75;;;9.20;99.90;;;;;;4995596;28;20116;-75
2022/03/14 09:42:53;;;;;;;0.30;0.30;;;9.20;99.90;;;;;;4996075;28;20066;-74
2022/03/14 09:45:19;;;;;;;0.73;0.73;;;9.30;99.90;;;;;;4995776;28;20038;-74
2022/03/14 09:47:49;;;;;;;0.50;0.50;;;9.30;99.90;;;;;;4995622;28;20129;-74
2022/03/14 09:50:23;;;;;;;0.50;0.50;;;9.30;99.90;;;;;;4995312;28;20081;-74
2022/03/14 09:52:50;;;;;;;0.57;0.57;;;9.30;99.90;;;;;;4994993;28;20121;-75
2022/03/14 09:55:16;;;;;;;0.25;0.25;;;9.40;99.90;;;;;;5010783;28;20042;-75
2022/03/14 09:57:42;;;;;;;0.70;0.70;;;9.40;99.90;;;;;;5015295;28;20037;-74
2022/03/14 10:00:13;;;;;;;0.40;0.40;;;9.40;99.90;;;;;;5014917;28;20052;-74
2022/03/14 10:02:40;;;;;;;0.70;0.70;;;9.40;99.90;;;;;;5011019;28;20049;-74
2022/03/14 10:05:11;;;;;;;0.47;0.47;;;9.40;99.90;;;;;;4995494;28;20088;-73
2022/03/14 10:07:37;;;;;;;;;;;9.40;99.90;;;;;;5001694;28;20042;-74
2022/03/14 10:10:04;;;;;;;0.10;0.10;;;9.50;99.90;;;;;;4995464;28;19964;-73
2022/03/14 10:12:32;;;;;;;0.10;0.10;;;9.60;99.90;;;;;;5003588;28;20037;-74
2022/03/14 10:15:02;;;;;;;0.30;0.30;;;9.70;99.90;;;;;;5014745;28;20084;-74
2022/03/14 10:17:28;;;;;;;1.33;1.23;;;10.20;99.90;;;;;;5014754;28;20042;-74
2022/03/14 10:19:56;;;;;;;0.30;0.30;;;10.40;99.90;;;;;;5015099;28;20518;-74
2022/03/14 10:22:23;;;;;;;0.10;0.10;;;10.40;99.90;;;;;;5014824;28;20057;-74
2022/03/14 10:24:53;;;;;;;0.73;0.73;;;10.50;99.90;;;;;;5015454;28;20507;-74
2022/03/14 10:27:20;;;;;;;2.10;0.95;;;10.60;99.90;;;;;;5018632;28;20456;-74
2022/03/14 10:29:47;;;;;;;0.20;0.20;;;10.60;99.90;;;;;;5018686;28;20049;-74
2022/03/14 10:32:28;;;;;;;0.65;0.65;;;10.60;99.90;;;;;;5018598;28;20049;-74
2022/03/14 10:34:57;;;;;;;0.60;0.60;;;10.60;99.90;;;;;;5018643;28;20120;-74
2022/03/14 10:37:27;;;;;;;1.85;1.42;;;10.50;99.90;;;;;;5018614;28;20036;-74
2022/03/14 10:40:12;;;;;;;0.98;0.63;;;10.60;99.90;;;;;;5018216;28;20095;-74
2022/03/14 10:42:42;;;;;;;0.35;0.35;;;10.70;99.90;;;;;;5018479;28;20069;-74
2022/03/14 10:45:12;;;;;;;;;;;10.70;99.90;;;;;;5018894;28;20034;-74
2022/03/14 10:47:43;;;;;;;0.30;0.30;;;10.70;99.90;;;;;;5018094;28;19916;-74
2022/03/14 10:50:31;;;;;;;0.20;0.20;;;10.80;99.90;;;;;;5018390;28;20508;-74
2022/03/14 10:53:19;;;;;;;1.60;0.47;;;10.80;99.90;;;;;;5401683;23;20053;-74
2022/03/14 10:55:49;;;;;;;0.70;0.70;;;10.80;99.90;;;;;;5038012;28;20041;-73
2022/03/14 10:58:16;;;;;;;0.30;0.30;;;11.00;99.90;;;;;;5037918;28;20033;-73
2022/03/14 11:00:45;;;;;;;0.20;0.20;;;11.00;99.90;;;;;;5392139;23;20054;-74
2022/03/14 11:03:11;;;;;;;1.05;1.05;;;11.00;99.90;;;;;;5018167;28;20120;-73
2022/03/14 11:05:44;;;;;;;1.45;1.35;;;11.00;99.90;;;;;;5017781;28;20061;-73
2022/03/14 11:08:38;;;;;;;0.63;0.63;;;11.00;99.90;;;;;;5017894;28;20040;-73
2022/03/14 11:11:13;;;;;;;0.55;0.55;;;11.10;99.90;;;;;;5014413;28;20045;-73
2022/03/14 11:13:40;;;;;;;0.55;0.55;;;11.10;99.90;;;;;;5017813;28;20110;-73
2022/03/14 11:16:27;;;;;;;0.30;0.30;;;11.10;99.90;;;;;;5017870;28;20100;-73
2022/03/14 11:18:54;;;;;;;0.57;0.57;;;11.10;99.90;;;;;;5017711;28;20049;-73
2022/03/14 11:21:24;;;;;;;0.40;0.40;;;11.10;99.90;;;;;;5018122;28;20046;-74
2022/03/14 11:23:51;;;;;;;0.68;0.68;;;11.20;99.90;;;;;;5017796;28;20488;-73
2022/03/14 11:26:25;;;;;;;0.40;0.40;;;11.20;99.90;;;;;;5017585;28;20034;-73
2022/03/14 11:28:52;;;;;;;0.50;0.50;;;11.10;99.90;;;;;;5017643;28;20562;-73
2022/03/14 11:31:20;;;;;;;0.30;0.30;;;11.10;99.90;;;;;;5017484;28;20096;-73
2022/03/14 11:33:47;;;;;;;1.02;0.77;;;11.10;99.90;;;;;;5003709;28;20042;-73
2022/03/14 11:36:17;;;;;;;0.73;0.73;;;11.10;99.90;;;;;;4996853;28;20125;-73
2022/03/14 11:38:43;;;;;;;0.20;0.20;;;11.10;99.90;;;;;;4996983;28;20080;-73
2022/03/14 11:41:10;;;;;;;0.65;0.65;;;11.10;99.90;;;;;;4996180;28;20038;-73
2022/03/14 11:43:39;;;;;;;0.35;0.35;;;11.00;99.90;;;;;;4997153;28;20039;-72
2022/03/14 11:46:05;;;;;;;0.98;0.73;;;11.10;99.90;;;;;;4996926;28;20099;-73
2022/03/14 11:48:32;;;;;;;0.25;0.25;;;11.10;99.90;;;;;;4996591;28;20046;-72
2022/03/14 11:51:03;;;;;;;0.50;0.50;;;11.10;99.90;;;;;;4997022;28;20133;-73
2022/03/14 11:53:32;;;;;;;1.17;0.77;;;11.10;99.90;;;;;;4997004;28;20172;-73
2022/03/14 11:56:08;;;;;;;0.30;0.30;;;11.00;99.90;;;;;;4995899;28;20120;-73
2022/03/14 11:58:38;;;;;;;0.40;0.40;;;11.10;99.90;;;;;;4996643;28;20069;-74
2022/03/14 12:01:18;;;;;;;0.20;0.20;;;11.10;99.90;;;;;;4996608;28;20185;-73
2022/03/14 12:03:49;;;;;;;0.68;0.68;;;11.30;99.90;;;;;;4996574;28;20046;-73
2022/03/14 12:06:16;;;;;;;0.10;0.10;;;11.60;99.90;;;;;;4997078;28;20046;-73
2022/03/14 12:08:44;;;;;;;0.30;0.30;;;11.60;99.90;;;;;;4997163;28;20480;-73
2022/03/14 12:11:29;;;;;;;0.15;0.15;;;11.70;99.90;;;;;;4995492;28;20085;-74
2022/03/14 12:13:55;;;;;;;0.22;0.22;;;11.60;99.90;;;;;;4990341;28;20038;-75
2022/03/14 12:16:41;;;;;;;0.10;0.10;;;11.60;99.90;;;;;;4995578;28;20084;-75
2022/03/14 12:19:44;;;;;;;0.20;0.20;;;11.70;99.90;;;;;;4993742;28;20268;-74
2022/03/14 12:22:32;;;;;;;0.38;0.38;;;11.70;99.90;;;;;;5008092;28;20049;-75
2022/03/14 12:24:59;;;;;;;2.05;0.70;;;11.70;99.90;;;;;;5014463;28;20087;-75
2022/03/14 12:27:34;;;;;;;4.18;2.08;;;11.70;99.90;;;;;;5015391;28;20148;-75
2022/03/14 12:30:24;;;;;;;0.22;0.22;;;11.70;99.90;;;;;;5015416;28;20041;-76
2022/03/14 12:32:55;;;;;;;0.68;0.68;;;11.80;99.90;;;;;;5009196;28;20042;-74
2022/03/14 12:35:25;;;;;;;0.52;0.52;;;11.90;99.90;;;;;;5015548;28;20343;-74
2022/03/14 12:37:59;;;;;;;0.57;0.57;;;11.80;99.90;;;;;;5016201;28;20492;-74
2022/03/14 12:40:24;;;;;;;0.52;0.52;;;11.80;99.90;;;;;;5015136;28;20061;-75
2022/03/14 12:42:53;;;;;;;1.50;0.82;;;12.00;99.90;;;;;;5015522;28;20069;-74
2022/03/14 12:45:30;;;;;;;0.20;0.20;;;12.00;99.90;;;;;;5015341;28;20117;-74
2022/03/14 12:48:29;;;;;;;0.80;0.80;;;12.20;99.90;;;;;;5015310;28;20103;-74
2022/03/14 12:51:08;;;;;;;0.88;0.80;;;12.10;99.90;;;;;;5013197;28;20426;-74
2022/03/14 12:53:34;;;;;;;0.43;0.43;;;12.20;99.90;;;;;;5015023;28;20133;-75
2022/03/14 12:56:02;;;;;;;0.63;0.63;;;12.40;99.90;;;;;;5015166;28;20121;-74
2022/03/14 12:58:33;;;;;;;0.47;0.47;;;12.30;99.90;;;;;;5014956;28;20038;-74